Time;durP1;ratioP1;P1;durP2;ratioP2;P2;SDS_P1;SDS_P2;PMS_P1;PMS_P2;Temp;Humidity;BMP_temperature;BMP_pressure;BME280_temperature;BME280_humidity;BME280_pressure;Samples;Min_cycle;Max_cycle;Signal;HPM_P1;HPM_P2
2023/04/14 00:02:09;;;;;;;6.90;4.13;;;;;;;17.74;45.09;100940.97;5061933;28;20471;-41
2023/04/14 00:04:36;;;;;;;7.43;4.22;;;;;;;17.72;45.07;100934.88;5062824;28;20060;-42
2023/04/14 00:07:03;;;;;;;9.68;4.00;;;;;;;17.70;44.93;100939.56;5063203;28;20340;-42
2023/04/14 00:09:29;;;;;;;5.97;3.75;;;;;;;17.70;45.18;100933.34;5064692;28;20056;-42
2023/04/14 00:11:56;;;;;;;10.48;4.40;;;;;;;17.68;44.70;100933.47;5064357;28;20055;-42
2023/04/14 00:14:23;;;;;;;7.07;4.00;;;;;;;17.68;44.82;100932.66;5063430;28;20048;-43
2023/04/14 00:16:49;;;;;;;7.18;3.97;;;;;;;17.65;44.80;100931.13;5063618;28;20111;-42
2023/04/14 00:19:16;;;;;;;6.32;4.13;;;;;;;17.64;45.02;100932.09;5063819;28;20044;-42
2023/04/14 00:21:42;;;;;;;8.77;3.75;;;;;;;17.63;45.18;100926.91;5066875;28;20372;-42
2023/04/14 00:24:09;;;;;;;6.95;3.42;;;;;;;17.61;44.88;100928.88;5064188;28;20700;-42
2023/04/14 00:26:36;;;;;;;7.22;3.90;;;;;;;17.60;44.87;100932.53;5067249;28;20050;-42
2023/04/14 00:29:02;;;;;;;8.85;3.97;;;;;;;17.60;44.80;100930.72;5064678;28;20054;-42
2023/04/14 00:31:29;;;;;;;7.75;4.07;;;;;;;17.59;45.06;100928.19;5061979;28;20097;-42
2023/04/14 00:33:55;;;;;;;9.88;4.18;;;;;;;17.57;44.57;100927.47;5067570;28;20052;-42
2023/04/14 00:36:22;;;;;;;6.10;3.40;;;;;;;17.56;45.02;100923.13;5070187;28;20043;-42
2023/04/14 00:38:49;;;;;;;6.93;3.50;;;;;;;17.54;44.97;100930.47;5071410;28;20059;-42
2023/04/14 00:41:15;;;;;;;8.52;3.50;;;;;;;17.52;45.10;100931.44;5060064;28;20048;-42
2023/04/14 00:43:42;;;;;;;6.97;3.72;;;;;;;17.52;44.55;100931.44;5065210;28;20057;-42
2023/04/14 00:46:08;;;;;;;7.30;3.60;;;;;;;17.50;44.68;100932.59;5063137;28;20126;-42
2023/04/14 00:48:35;;;;;;;6.70;3.03;;;;;;;17.49;44.82;100938.97;5067745;28;20048;-42
2023/04/14 00:51:03;;;;;;;6.95;3.63;;;;;;;17.48;45.06;100932.72;5063830;28;20053;-42
2023/04/14 00:53:31;;;;;;;9.05;3.83;;;;;;;17.46;45.10;100940.09;5064769;28;20356;-42
2023/04/14 00:55:58;;;;;;;7.97;3.33;;;;;;;17.45;44.63;100935.72;5064187;28;20083;-42
2023/04/14 00:58:25;;;;;;;6.80;3.13;;;;;;;17.44;44.67;100935.84;5063652;28;20052;-42
2023/04/14 01:00:54;;;;;;;5.30;3.22;;;;;;;17.43;44.58;100940.38;5063874;28;20041;-42
2023/04/14 01:03:23;;;;;;;8.15;3.75;;;;;;;17.43;44.82;100944.91;5063706;28;20053;-43
2023/04/14 01:05:50;;;;;;;5.95;2.97;;;;;;;17.42;44.76;100948.56;5066299;28;20052;-42
2023/04/14 01:08:18;;;;;;;7.57;3.00;;;;;;;17.41;44.74;100949.56;5062529;28;20048;-42
2023/04/14 01:11:08;;;;;;;5.82;2.83;;;;;;;17.37;44.91;100954.38;5066370;28;20051;-42
2023/04/14 01:13:47;;;;;;;5.80;3.00;;;;;;;17.38;44.99;100958.75;5060716;28;20064;-42
2023/04/14 01:16:18;;;;;;;6.30;3.15;;;;;;;17.37;45.01;100959.75;5060832;28;20336;-41
2023/04/14 01:19:28;;;;;;;5.55;2.83;;;;;;;17.35;44.89;100956.34;5062959;28;20144;-42
2023/04/14 01:21:59;;;;;;;7.03;3.00;;;;;;;17.35;44.60;100961.72;5065458;28;20086;-42
2023/04/14 01:24:37;;;;;;;5.95;3.13;;;;;;;17.34;44.79;100964.53;5063337;28;20459;-42
2023/04/14 01:27:37;;;;;;;5.28;2.80;;;;;;;17.32;44.75;100967.34;5062355;28;20088;-41
2023/04/14 01:30:22;;;;;;;5.15;3.40;;;;;;;17.31;44.83;100962.16;5061244;28;20059;-42
2023/04/14 01:32:52;;;;;;;6.72;2.90;;;;;;;17.36;44.43;100962.53;5064025;28;20453;-43
2023/04/14 01:35:30;;;;;;;6.18;2.95;;;;;;;17.44;45.00;100959.97;5065302;28;20057;-42
2023/04/14 01:38:05;;;;;;;4.95;2.80;;;;;;;17.52;44.66;100970.81;5065409;28;20416;-43
2023/04/14 01:40:33;;;;;;;5.90;2.90;;;;;;;17.59;44.58;100969.22;5063996;28;20044;-42
2023/04/14 01:43:03;;;;;;;6.18;2.78;;;;;;;17.66;44.14;100966.81;5067054;28;20284;-42
2023/04/14 01:45:37;;;;;;;6.00;3.08;;;;;;;17.74;44.17;100965.09;5059427;28;20045;-42
2023/04/14 01:48:05;;;;;;;3.83;2.55;;;;;;;17.82;43.95;100968.88;5062634;28;20124;-42
2023/04/14 01:50:34;;;;;;;5.50;2.47;;;;;;;17.89;43.87;100961.91;5060902;28;20075;-43
2023/04/14 01:53:05;;;;;;;5.68;2.40;;;;;;;17.93;43.84;100968.66;5061516;28;20056;-42
2023/04/14 01:55:36;;;;;;;6.72;2.90;;;;;;;17.97;44.29;100970.06;5060336;28;20060;-42
2023/04/14 01:58:04;;;;;;;4.30;2.15;;;;;;;17.97;43.80;100970.06;5063090;28;20076;-43
2023/04/14 02:00:33;;;;;;;6.95;2.63;;;;;;;17.97;43.60;100975.44;5062120;28;20049;-42
2023/04/14 02:03:02;;;;;;;4.28;2.63;;;;;;;17.93;43.28;100979.38;5064213;28;20041;-43
2023/04/14 02:05:31;;;;;;;4.38;2.65;;;;;;;17.84;43.36;100977.59;5064063;28;20048;-43
2023/04/14 02:07:59;;;;;;;4.57;2.55;;;;;;;17.72;43.58;100977.75;5062330;28;20048;-43
2023/04/14 02:10:26;;;;;;;5.57;2.45;;;;;;;17.63;44.08;100972.47;5065146;28;20506;-43
2023/04/14 02:12:56;;;;;;;4.88;2.35;;;;;;;17.53;44.15;100975.19;5061486;28;20056;-42
2023/04/14 02:15:24;;;;;;;5.68;2.75;;;;;;;17.42;44.62;100978.91;5062289;28;20053;-42
2023/04/14 02:17:51;;;;;;;4.13;2.03;;;;;;;17.35;44.03;100969.75;5064887;28;20064;-43
2023/04/14 02:20:20;;;;;;;6.10;2.40;;;;;;;17.28;44.93;100972.16;5066858;28;20141;-43
2023/04/14 02:22:47;;;;;;;4.15;2.17;;;;;;;17.22;45.06;100980.78;5059529;28;20333;-43
2023/04/14 02:25:13;;;;;;;4.97;2.50;;;;;;;17.18;44.58;100976.69;5068747;28;20049;-42
2023/04/14 02:27:52;;;;;;;6.63;2.42;;;;;;;17.14;44.71;100977.97;5063092;28;20346;-43
2023/04/14 02:30:23;;;;;;;7.93;2.80;;;;;;;17.13;44.80;100981.66;5069103;28;20053;-43
2023/04/14 02:32:56;;;;;;;5.38;2.40;;;;;;;17.14;44.90;100987.84;5065644;28;20444;-42
2023/04/14 02:35:28;;;;;;;6.03;2.50;;;;;;;17.13;44.70;100983.50;5064374;28;20084;-42
2023/04/14 02:38:04;;;;;;;5.68;2.20;;;;;;;17.13;44.69;100987.00;5066353;28;20044;-43
2023/04/14 02:40:36;;;;;;;4.63;2.22;;;;;;;17.12;44.78;100974.59;5065264;28;20049;-43
2023/04/14 02:43:18;;;;;;;3.30;2.13;;;;;;;17.13;45.22;100984.34;5065781;28;20054;-42
2023/04/14 02:45:49;;;;;;;4.28;2.00;;;;;;;17.16;45.17;100981.34;5064439;28;20135;-43
2023/04/14 02:48:20;;;;;;;3.60;2.08;;;;;;;17.16;44.74;100981.34;5066832;28;20037;-43
2023/04/14 02:50:51;;;;;;;3.63;2.20;;;;;;;17.16;44.84;100978.66;5065544;28;20169;-43
2023/04/14 02:53:21;;;;;;;4.13;2.17;;;;;;;17.17;44.16;100983.06;5065706;28;20062;-42
2023/04/14 02:55:50;;;;;;;5.20;2.00;;;;;;;17.18;44.60;100982.06;5065468;28;20101;-42
2023/04/14 02:58:17;;;;;;;3.85;2.40;;;;;;;17.18;44.71;100987.41;5060137;28;20043;-43
2023/04/14 03:00:45;;;;;;;3.28;1.88;;;;;;;17.16;44.76;100981.34;5063865;28;20043;-43
2023/04/14 03:03:13;;;;;;;4.38;2.25;;;;;;;17.16;44.61;100984.03;5063460;28;20044;-43
2023/04/14 03:05:42;;;;;;;5.35;1.98;;;;;;;17.16;44.44;100991.22;5061898;28;20591;-43
2023/04/14 03:08:14;;;;;;;3.30;1.88;;;;;;;17.15;44.83;100989.53;5060866;28;20417;-42
2023/04/14 03:10:46;;;;;;;4.75;2.03;;;;;;;17.14;44.36;100995.88;5065226;28;20048;-43
2023/04/14 03:13:15;;;;;;;3.25;1.83;;;;;;;17.13;44.53;100999.56;5062878;28;20055;-42
2023/04/14 03:15:43;;;;;;;3.97;1.90;;;;;;;17.12;44.45;100998.69;5065917;28;20057;-43
2023/04/14 03:18:11;;;;;;;4.65;2.08;;;;;;;17.10;44.85;101003.38;5067287;28;20404;-42
2023/04/14 03:20:39;;;;;;;5.60;2.50;;;;;;;17.10;44.94;100999.84;5066386;28;20432;-42
2023/04/14 03:23:10;;;;;;;3.25;1.70;;;;;;;17.08;44.58;100996.44;5062561;28;20091;-42
2023/04/14 03:25:38;;;;;;;4.68;2.05;;;;;;;17.13;45.23;101000.41;5064898;28;20343;-42
2023/04/14 03:28:09;;;;;;;5.10;2.33;;;;;;;17.19;44.56;100994.47;5065915;28;20458;-42
2023/04/14 03:30:40;;;;;;;3.28;1.73;;;;;;;17.28;45.10;100992.75;5065742;28;20127;-42
2023/04/14 03:33:11;;;;;;;2.40;1.70;;;;;;;17.38;44.72;101001.59;5064699;28;20060;-43
2023/04/14 03:35:39;;;;;;;4.32;1.70;;;;;;;17.49;44.40;101008.63;5061658;28;20055;-42
2023/04/14 03:38:08;;;;;;;4.13;2.00;;;;;;;17.56;43.89;100996.31;5060783;28;20037;-43
2023/04/14 03:40:38;;;;;;;4.72;2.30;;;;;;;17.65;44.12;100998.13;5063582;28;20430;-42
2023/04/14 03:43:08;;;;;;;5.57;2.10;;;;;;;17.70;43.85;101001.22;5064906;28;20492;-43
2023/04/14 03:45:38;;;;;;;3.00;1.65;;;;;;;17.75;44.13;101003.47;5067397;28;20056;-43
2023/04/14 03:48:11;;;;;;;4.85;2.28;;;;;;;17.78;43.63;100999.66;5064337;28;20053;-43
2023/04/14 03:50:41;;;;;;;4.00;1.75;;;;;;;17.80;43.62;101005.72;5064049;28;20062;-43
2023/04/14 03:53:13;;;;;;;4.97;1.92;;;;;;;17.80;43.50;101005.72;5062870;28;20140;-42
2023/04/14 03:55:42;;;;;;;3.22;1.65;;;;;;;17.78;43.40;100994.31;5062245;28;20117;-42
2023/04/14 03:58:12;;;;;;;6.07;1.70;;;;;;;17.75;43.32;101004.31;5058433;28;20056;-44
2023/04/14 04:00:39;;;;;;;3.65;1.80;;;;;;;17.68;43.71;101000.50;5058695;28;20044;-43
2023/04/14 04:03:05;;;;;;;5.07;2.00;;;;;;;17.62;43.41;100998.44;5061101;28;20062;-43
2023/04/14 04:05:33;;;;;;;4.50;2.10;;;;;;;17.53;43.63;100993.94;5061072;28;20432;-43
2023/04/14 04:08:03;;;;;;;3.80;1.80;;;;;;;17.44;43.89;101006.38;5067584;28;20079;-43
2023/04/14 04:10:34;;;;;;;3.17;1.77;;;;;;;17.36;43.46;101006.25;5065508;28;20076;-43
2023/04/14 04:13:05;;;;;;;3.50;1.80;;;;;;;17.28;43.64;101008.81;5065046;28;20476;-43
2023/04/14 04:15:32;;;;;;;7.07;2.03;;;;;;;17.20;44.65;101014.88;5064863;28;20045;-42
2023/04/14 04:18:00;;;;;;;4.68;2.40;;;;;;;17.14;44.45;101011.97;5060165;28;20538;-41
2023/04/14 04:20:28;;;;;;;4.35;2.45;;;;;;;17.07;44.62;101011.69;5062563;28;20052;-42
2023/04/14 04:22:59;;;;;;;3.08;1.58;;;;;;;17.02;44.30;101024.66;5059501;28;20403;-42
2023/04/14 04:25:26;;;;;;;5.03;2.22;;;;;;;16.95;45.16;101028.88;5063782;28;20775;-42
2023/04/14 04:27:52;;;;;;;5.07;2.13;;;;;;;16.90;45.21;101021.28;5060369;28;20041;-42
2023/04/14 04:30:22;;;;;;;5.00;1.90;;;;;;;16.87;44.95;101024.25;5062477;28;20054;-42
2023/04/14 04:32:50;;;;;;;5.18;2.25;;;;;;;16.86;45.17;101024.41;5063859;28;20063;-42
2023/04/14 04:35:17;;;;;;;5.95;2.20;;;;;;;16.84;44.18;101026.34;5063300;28;20044;-42
2023/04/14 04:37:45;;;;;;;6.05;2.08;;;;;;;16.82;44.47;101028.34;5063703;28;20334;-43
2023/04/14 04:40:12;;;;;;;7.32;2.42;;;;;;;16.83;44.81;101033.53;5061947;28;20047;-41
2023/04/14 04:42:42;;;;;;;3.63;2.15;;;;;;;16.82;44.78;101036.38;5060559;28;20058;-42
2023/04/14 04:45:09;;;;;;;4.45;2.40;;;;;;;16.82;44.49;101039.03;5059486;28;20504;-42
2023/04/14 04:47:36;;;;;;;5.47;2.40;;;;;;;16.83;44.81;101036.22;5067410;28;20086;-42
2023/04/14 04:50:03;;;;;;;5.53;2.30;;;;;;;16.84;44.56;101045.09;5063040;28;20071;-42
2023/04/14 04:52:29;;;;;;;4.43;2.25;;;;;;;16.85;44.65;101038.78;5063246;28;20464;-41
2023/04/14 04:54:56;;;;;;;3.72;1.67;;;;;;;16.86;44.19;101040.44;5064157;28;20082;-42
2023/04/14 04:57:22;;;;;;;8.07;2.47;;;;;;;16.87;44.41;101034.09;5063400;28;20051;-42
2023/04/14 04:59:49;;;;;;;4.18;1.92;;;;;;;16.85;44.37;101036.94;5065405;28;20131;-42
2023/04/14 05:02:16;;;;;;;4.15;2.08;;;;;;;16.83;43.92;101038.06;5063162;28;20040;-42
2023/04/14 05:04:43;;;;;;;5.28;2.03;;;;;;;16.78;44.93;101039.31;5064195;28;20059;-42
2023/04/14 05:07:09;;;;;;;7.07;2.63;;;;;;;16.81;43.68;101045.41;5064433;28;20052;-42
2023/04/14 05:09:36;;;;;;;3.75;2.08;;;;;;;16.86;44.24;101035.94;5064767;28;20418;-42
2023/04/14 05:12:02;;;;;;;1.95;1.30;;;;;;;16.98;44.67;101040.16;5062592;28;20048;-42
2023/04/14 05:14:29;;;;;;;5.10;2.00;;;;;;;17.09;44.17;101041.84;5062628;28;20051;-42
2023/04/14 05:16:56;;;;;;;3.60;1.65;;;;;;;17.20;44.38;101047.03;5062844;28;20048;-42
2023/04/14 05:19:22;;;;;;;4.20;2.10;;;;;;;17.32;44.10;101049.56;5063407;28;20698;-42
2023/04/14 05:21:49;;;;;;;3.60;2.15;;;;;;;17.40;43.40;101047.00;5059963;28;20056;-42
2023/04/14 05:24:16;;;;;;;4.28;1.83;;;;;;;17.50;43.42;101042.47;5063218;28;20169;-42
2023/04/14 05:26:42;;;;;;;3.80;2.03;;;;;;;17.57;43.39;101042.72;5061068;28;20052;-42
2023/04/14 05:29:29;;;;;;;3.80;1.95;;;;;;;17.65;43.25;101038.34;5060786;28;20049;-42
2023/04/14 05:31:55;;;;;;;3.78;1.98;;;;;;;17.71;43.14;101043.09;5062541;28;20054;-42
2023/04/14 05:34:22;;;;;;;4.50;2.10;;;;;;;17.76;43.09;101046.22;5061401;28;20052;-43
2023/04/14 05:36:48;;;;;;;5.15;1.67;;;;;;;17.82;43.28;101043.97;5064838;28;20041;-42
2023/04/14 05:39:15;;;;;;;3.85;2.28;;;;;;;17.86;42.75;101046.19;5065275;28;20048;-43
2023/04/14 05:41:41;;;;;;;5.53;2.53;;;;;;;17.91;42.79;101046.59;5059567;28;20055;-43
2023/04/14 05:44:08;;;;;;;4.97;1.90;;;;;;;17.96;42.91;101043.47;5065351;28;20140;-42
2023/04/14 05:46:34;;;;;;;3.22;1.73;;;;;;;18.01;42.60;101049.25;5061149;28;20057;-43
2023/04/14 05:49:03;;;;;;;4.72;1.92;;;;;;;18.04;42.52;101038.19;5060952;28;20440;-43
2023/04/14 05:51:30;;;;;;;3.83;1.88;;;;;;;18.07;42.64;101045.94;5061201;28;20060;-46
2023/04/14 05:53:56;;;;;;;5.38;2.17;;;;;;;18.10;42.36;101042.97;5067701;28;20144;-43
2023/04/14 05:56:23;;;;;;;4.20;1.75;;;;;;;18.14;42.59;101043.53;5061612;28;20053;-43
2023/04/14 05:58:53;;;;;;;5.32;2.00;;;;;;;18.16;42.17;101042.34;5064807;28;20049;-45
2023/04/14 06:01:19;;;;;;;5.30;2.33;;;;;;;18.18;41.99;101044.91;5064600;28;20052;-45
2023/04/14 06:03:46;;;;;;;4.65;2.10;;;;;;;18.20;41.83;101041.06;5072342;28;20052;-45
2023/04/14 06:06:13;;;;;;;4.72;2.13;;;;;;;18.21;41.80;101042.78;5073523;28;20447;-45
2023/04/14 06:08:40;;;;;;;3.72;1.63;;;;;;;18.22;41.82;101040.94;5077901;28;20054;-43
2023/04/14 06:11:06;;;;;;;4.65;1.75;;;;;;;18.23;42.01;101037.25;5066987;28;20434;-43
2023/04/14 06:13:33;;;;;;;3.38;1.65;;;;;;;18.24;42.24;101033.56;5065506;28;20044;-43
2023/04/14 06:16:02;;;;;;;2.33;1.48;;;;;;;18.25;42.36;101037.94;5062580;28;20111;-43
2023/04/14 06:18:28;;;;;;;5.60;2.03;;;;;;;18.28;41.97;101040.31;5067911;28;20060;-43
2023/04/14 06:20:55;;;;;;;5.85;2.03;;;;;;;18.30;41.95;101041.03;5063668;28;20132;-43
2023/04/14 06:23:23;;;;;;;6.97;1.85;;;;;;;18.32;41.73;101046.22;5062171;28;20054;-43
2023/04/14 06:25:51;;;;;;;2.88;1.40;;;;;;;18.34;41.99;101045.09;5061324;28;20067;-43
2023/04/14 06:28:18;;;;;;;7.10;2.13;;;;;;;18.36;42.36;101047.63;5065858;28;20048;-43
2023/04/14 06:30:45;;;;;;;4.22;2.15;;;;;;;18.38;42.20;101043.81;5065432;28;20403;-43
2023/04/14 06:33:11;;;;;;;4.80;1.80;;;;;;;18.40;41.87;101040.94;5063573;28;20044;-43
2023/04/14 06:35:38;;;;;;;3.60;1.88;;;;;;;18.42;42.26;101041.66;5064473;28;20045;-43
2023/04/14 06:38:04;;;;;;;7.15;2.53;;;;;;;18.45;42.01;101044.03;5064957;28;20447;-43
2023/04/14 06:40:31;;;;;;;3.95;1.58;;;;;;;18.46;42.04;101045.72;5054143;28;20055;-43
2023/04/14 06:42:58;;;;;;;3.40;1.90;;;;;;;18.48;41.98;101041.03;5063691;28;20090;-43
2023/04/14 06:45:25;;;;;;;5.10;1.75;;;;;;;18.49;42.02;101043.59;5063510;28;20103;-43
2023/04/14 06:47:51;;;;;;;5.10;2.00;;;;;;;18.52;41.68;101045.09;5064945;28;20331;-43
2023/04/14 06:50:18;;;;;;;3.67;1.90;;;;;;;18.54;41.21;101034.25;5063972;28;20518;-43
2023/04/14 06:52:45;;;;;;;6.07;2.13;;;;;;;18.55;40.83;101038.59;5067733;28;20056;-43
2023/04/14 06:55:11;;;;;;;6.20;2.10;;;;;;;18.56;41.05;101032.22;5059666;28;20049;-43
2023/04/14 06:57:38;;;;;;;4.78;2.15;;;;;;;18.55;40.77;101034.06;5070352;28;20063;-43
2023/04/14 07:00:06;;;;;;;4.35;2.25;;;;;;;18.56;40.70;101038.44;5062956;28;20049;-43
2023/04/14 07:02:32;;;;;;;7.13;1.67;;;;;;;18.58;40.96;101041.00;5064282;28;20137;-43
2023/04/14 07:04:59;;;;;;;5.15;2.15;;;;;;;18.58;41.01;101035.63;5062423;28;20056;-43
2023/04/14 07:07:26;;;;;;;4.43;2.10;;;;;;;18.58;40.75;101031.09;5065254;28;20056;-43
2023/04/14 07:09:52;;;;;;;8.23;2.40;;;;;;;18.58;40.74;101036.47;5063946;28;20339;-43
2023/04/14 07:12:19;;;;;;;3.28;1.77;;;;;;;18.59;40.58;101032.78;5061087;28;20506;-43
2023/04/14 07:14:50;;;;;;;5.53;2.13;;;;;;;18.59;40.86;101035.47;5063947;28;20057;-43
2023/04/14 07:17:18;;;;;;;4.55;2.00;;;;;;;18.59;40.44;101035.47;5065753;28;20060;-43
2023/04/14 07:19:45;;;;;;;5.25;2.20;;;;;;;18.58;40.81;101031.09;5062711;28;20481;-43
2023/04/14 07:22:12;;;;;;;5.82;1.73;;;;;;;18.58;40.80;101032.94;5065042;28;20366;-44
2023/04/14 07:24:39;;;;;;;4.43;2.05;;;;;;;18.56;40.23;101038.44;5059239;28;20270;-44
2023/04/14 07:27:06;;;;;;;4.10;1.88;;;;;;;18.55;40.67;101034.06;5061603;28;20411;-45
2023/04/14 07:29:33;;;;;;;5.47;2.05;;;;;;;18.54;40.54;101029.72;5062225;28;20080;-44
2023/04/14 07:32:00;;;;;;;5.15;1.73;;;;;;;18.54;40.56;101026.19;5064802;28;20054;-44
2023/04/14 07:34:27;;;;;;;6.82;2.50;;;;;;;18.52;40.44;101020.94;5062719;28;20052;-44
2023/04/14 07:36:53;;;;;;;4.53;2.35;;;;;;;18.52;40.68;101012.91;5050188;28;20082;-43
2023/04/14 07:39:20;;;;;;;9.93;4.55;;;;;;;18.52;41.11;101015.59;5056976;28;20344;-41
2023/04/14 07:41:49;;;;;;;10.55;5.20;;;;;;;18.52;41.31;101014.75;5059016;28;20416;-40
2023/04/14 07:44:15;;;;;;;14.77;6.93;;;;;;;18.50;41.52;101012.22;5056465;28;20045;-40
2023/04/14 07:46:42;;;;;;;20.23;10.18;;;;;;;18.52;42.84;101015.59;5059154;28;20048;-39
2023/04/14 07:49:09;;;;;;;20.50;9.35;;;;;;;18.53;43.63;101008.38;5055447;28;20052;-38
2023/04/14 07:51:35;;;;;;;26.00;12.02;;;;;;;18.57;44.54;101007.06;5057124;28;20052;-40
2023/04/14 07:54:04;;;;;;;23.55;11.32;;;;;;;18.59;45.67;101008.63;5055470;28;20053;-39
2023/04/14 07:56:30;;;;;;;25.10;10.63;;;;;;;18.65;46.28;101015.19;5054359;28;20368;-35
2023/04/14 07:58:57;;;;;;;33.47;12.93;;;;;;;18.68;47.13;101004.16;5058498;28;20421;-39
2023/04/14 08:01:24;;;;;;;34.95;13.38;;;;;;;18.72;48.18;101000.19;5056994;28;20044;-37
2023/04/14 08:03:50;;;;;;;26.95;13.65;;;;;;;18.77;48.81;101011.31;5061866;28;20040;-36
2023/04/14 08:06:18;;;;;;;28.13;13.48;;;;;;;18.81;48.61;101010.00;5059027;28;20057;-39
2023/04/14 08:08:44;;;;;;;29.42;14.35;;;;;;;18.84;48.87;101004.34;5054772;28;20045;-39
2023/04/14 08:11:11;;;;;;;30.20;14.45;;;;;;;18.88;49.27;101007.56;5055157;28;20048;-40
2023/04/14 08:13:37;;;;;;;28.63;14.57;;;;;;;18.92;49.45;101014.31;5056933;28;20048;-41
2023/04/14 08:16:04;;;;;;;31.73;14.80;;;;;;;18.96;49.90;101007.63;5055822;28;20054;-36
2023/04/14 08:18:31;;;;;;;31.30;13.52;;;;;;;19.00;50.13;101011.69;5053854;28;20125;-43
2023/04/14 08:20:58;;;;;;;30.38;16.13;;;;;;;19.02;50.88;101011.53;5058801;28;20055;-40
2023/04/14 08:23:24;;;;;;;28.67;12.98;;;;;;;19.05;50.86;101004.00;5055512;28;20052;-37
2023/04/14 08:25:51;;;;;;;25.55;11.90;;;;;;;19.03;50.27;101008.69;5054553;28;20045;-40
2023/04/14 08:28:17;;;;;;;21.10;11.50;;;;;;;19.03;50.35;101005.16;5055305;28;20139;-39
2023/04/14 08:30:44;;;;;;;31.77;12.93;;;;;;;19.02;50.52;101012.38;5056134;28;20059;-34
2023/04/14 08:33:10;;;;;;;30.67;13.30;;;;;;;19.03;50.55;101006.00;5057590;28;20062;-34
2023/04/14 08:35:37;;;;;;;48.70;12.05;;;;;;;19.04;50.42;101004.16;5057470;28;20478;-35
2023/04/14 08:38:08;;;;;;;22.80;11.15;;;;;;;19.05;50.40;101004.00;5057184;28;20044;-35
2023/04/14 08:40:37;;;;;;;28.85;11.98;;;;;;;19.07;51.33;101002.00;5055176;28;20044;-39
2023/04/14 08:43:05;;;;;;;26.63;10.70;;;;;;;19.11;50.94;100999.84;5051221;28;20584;-36
2023/04/14 08:45:33;;;;;;;23.63;11.15;;;;;;;19.15;50.52;100995.84;5054262;28;20052;-36
2023/04/14 08:48:01;;;;;;;24.30;10.90;;;;;;;19.19;50.49;100997.22;5055972;28;20055;-35
2023/04/14 08:50:36;;;;;;;25.52;11.63;;;;;;;19.23;51.49;100991.38;5053799;28;20056;-35
2023/04/14 08:53:07;;;;;;;22.48;11.60;;;;;;;19.27;50.88;100999.13;5053724;28;20410;-34
2023/04/14 08:55:42;;;;;;;21.67;9.52;;;;;;;19.29;50.97;100997.09;5056130;28;20143;-35
2023/04/14 08:58:11;;;;;;;20.35;10.65;;;;;;;19.31;50.34;100995.97;5055577;28;20056;-36
2023/04/14 09:00:38;;;;;;;23.45;11.45;;;;;;;19.33;50.10;100993.94;5057043;28;20151;-38
2023/04/14 09:03:07;;;;;;;26.08;14.00;;;;;;;19.37;50.42;100998.00;5050036;28;20088;-37
2023/04/14 09:05:35;;;;;;;23.75;12.95;;;;;;;19.40;50.41;101002.22;5054734;28;20048;-35
2023/04/14 09:08:02;;;;;;;29.90;13.73;;;;;;;19.44;50.10;100998.22;5055775;28;20129;-36
2023/04/14 09:10:30;;;;;;;24.10;12.40;;;;;;;19.46;50.58;100994.38;5057521;28;20477;-36
2023/04/14 09:12:56;;;;;;;23.30;12.93;;;;;;;19.51;50.39;100996.56;5055625;28;20147;-36
2023/04/14 09:15:26;;;;;;;26.83;14.95;;;;;;;19.57;49.78;101000.47;5051600;28;20451;-37
2023/04/14 09:17:53;;;;;;;27.20;16.90;;;;;;;19.63;48.57;100995.34;5054263;28;20076;-37
2023/04/14 09:20:21;;;;;;;26.02;13.52;;;;;;;19.72;48.74;100990.84;5056496;28;20071;-36
2023/04/14 09:23:08;;;;;;;28.02;14.35;;;;;;;19.81;48.15;100991.69;5059644;28;20328;-36
2023/04/14 09:25:37;;;;;;;21.25;12.88;;;;;;;19.88;47.69;100990.06;5053691;28;20417;-38
2023/04/14 09:28:03;;;;;;;28.85;13.43;;;;;;;19.96;47.43;100988.22;5055009;28;20109;-36
2023/04/14 09:30:30;;;;;;;20.95;11.98;;;;;;;20.03;47.02;100974.97;5056872;28;20075;-37
2023/04/14 09:32:57;;;;;;;23.98;12.15;;;;;;;20.10;46.78;100970.63;5061008;28;20054;-36
2023/04/14 09:35:44;;;;;;;21.55;12.63;;;;;;;20.18;46.51;100977.84;5058810;28;20052;-39
2023/04/14 09:38:11;;;;;;;22.77;11.95;;;;;;;20.30;46.02;100970.31;5059948;28;20052;-37
2023/04/14 09:40:40;;;;;;;19.40;10.68;;;;;;;20.40;46.24;100977.25;5072214;28;20430;-38
2023/04/14 09:43:07;;;;;;;15.85;10.05;;;;;;;20.51;45.48;100969.91;5060030;28;20045;-36
2023/04/14 09:45:43;;;;;;;20.38;11.05;;;;;;;20.55;45.67;100977.47;5060387;28;20091;-36
2023/04/14 09:48:14;;;;;;;19.63;10.15;;;;;;;20.57;45.45;100969.22;5058141;28;20504;-36
2023/04/14 09:51:02;;;;;;;14.77;8.93;;;;;;;20.59;45.71;100968.06;5063491;28;20153;-36
2023/04/14 09:53:34;;;;;;;17.42;9.30;;;;;;;20.60;45.45;100972.41;5061547;28;20072;-36
2023/04/14 09:56:03;;;;;;;12.85;7.72;;;;;;;20.59;45.48;100976.13;5060056;28;20052;-36
2023/04/14 09:58:33;;;;;;;15.82;8.25;;;;;;;20.59;45.29;100969.91;5059776;28;20904;-36
2023/04/14 10:01:03;;;;;;;13.73;8.13;;;;;;;20.56;45.32;100975.63;5057482;28;20048;-37
2023/04/14 10:03:48;;;;;;;15.80;8.93;;;;;;;20.52;44.73;100976.97;5061594;28;20056;-37
2023/04/14 10:06:16;;;;;;;16.92;9.20;;;;;;;20.52;45.10;100976.97;5061698;28;20044;-37
2023/04/14 10:08:45;;;;;;;17.17;10.00;;;;;;;20.49;45.75;100963.81;5057333;28;20144;-36
2023/04/14 10:11:17;;;;;;;16.75;9.88;;;;;;;20.46;44.98;100971.22;5057484;28;20347;-37
2023/04/14 10:13:52;;;;;;;17.15;9.48;;;;;;;20.45;45.01;100963.28;5060154;28;20098;-36
2023/04/14 10:16:20;;;;;;;16.75;10.05;;;;;;;20.45;44.79;100958.72;5054626;28;20448;-36
2023/04/14 10:18:47;;;;;;;19.40;10.65;;;;;;;20.46;45.55;100948.81;5055765;28;20432;-35
2023/04/14 10:21:14;;;;;;;17.05;9.75;;;;;;;20.48;45.48;100940.56;5055411;28;20348;-35
2023/04/14 10:23:42;;;;;;;20.00;10.05;;;;;;;20.48;45.30;100946.81;5057009;28;20601;-38
2023/04/14 10:26:12;;;;;;;19.50;10.50;;;;;;;20.51;45.29;100946.50;5056126;28;20063;-35
2023/04/14 10:28:44;;;;;;;18.92;10.40;;;;;;;20.54;45.35;100948.00;5060623;28;20048;-42
2023/04/14 10:31:18;;;;;;;19.85;10.77;;;;;;;20.54;45.53;100940.75;5060058;28;20483;-37
2023/04/14 10:33:45;;;;;;;17.95;10.60;;;;;;;20.57;45.16;100937.75;5067871;28;20086;-40
2023/04/14 10:36:22;;;;;;;15.93;8.95;;;;;;;20.62;45.18;100937.22;5070053;28;20048;-39
2023/04/14 10:38:49;;;;;;;14.23;8.68;;;;;;;20.69;44.59;100943.63;5068184;28;20071;-37
2023/04/14 10:41:15;;;;;;;16.42;9.55;;;;;;;20.75;44.85;100932.19;5066400;28;20044;-39
2023/04/14 10:43:42;;;;;;;17.80;9.57;;;;;;;20.82;44.96;100932.34;5067193;28;20052;-39
2023/04/14 10:46:09;;;;;;;15.38;8.77;;;;;;;20.85;45.06;100934.69;5067672;28;20067;-37
2023/04/14 10:48:38;;;;;;;18.67;10.43;;;;;;;20.87;44.61;100930.00;5063134;28;20432;-38
2023/04/14 10:51:09;;;;;;;20.10;11.07;;;;;;;20.90;45.13;100918.84;5063954;28;20124;-37
2023/04/14 10:53:38;;;;;;;21.52;11.52;;;;;;;20.93;44.90;100922.06;5063935;28;20056;-39
2023/04/14 10:56:06;;;;;;;18.33;9.93;;;;;;;20.95;44.89;100933.53;5066636;28;20048;-39
2023/04/14 10:58:34;;;;;;;19.45;10.90;;;;;;;20.99;44.75;100923.25;5061145;28;20064;-38
2023/04/14 11:01:24;;;;;;;21.30;10.90;;;;;;;21.03;44.51;100921.88;5064106;28;20551;-39
2023/04/14 11:03:53;;;;;;;14.95;9.45;;;;;;;21.09;44.10;100925.75;5065622;28;20049;-39
2023/04/14 11:06:51;;;;;;;15.77;9.15;;;;;;;21.09;44.17;100913.09;5061739;28;20052;-40
2023/04/14 11:09:36;;;;;;;15.73;8.55;;;;;;;21.12;43.88;100912.75;5064822;28;20133;-36
2023/04/14 11:12:27;;;;;;;12.20;7.07;;;;;;;21.12;43.81;100920.00;5059722;28;20371;-37
2023/04/14 11:15:14;;;;;;;13.50;7.60;;;;;;;21.13;43.64;100913.59;5064664;28;20055;-41
2023/04/14 11:17:44;;;;;;;13.02;7.18;;;;;;;21.13;43.29;100914.44;5065181;28;20131;-39
2023/04/14 11:20:19;;;;;;;10.18;6.28;;;;;;;21.10;43.21;100909.38;5067892;28;20120;-38
2023/04/14 11:22:47;;;;;;;10.32;6.90;;;;;;;21.09;43.75;100905.00;5064372;28;20428;-40
2023/04/14 11:25:16;;;;;;;11.10;7.18;;;;;;;21.07;43.64;100904.38;5063207;28;20431;-39
2023/04/14 11:27:44;;;;;;;12.38;6.22;;;;;;;21.07;43.14;100909.75;5062676;28;20051;-38
2023/04/14 11:30:15;;;;;;;10.02;6.50;;;;;;;21.07;42.83;100912.44;5065885;28;20053;-38
2023/04/14 11:32:51;;;;;;;8.82;5.80;;;;;;;21.05;42.67;100911.75;5067476;28;20056;-40